sensor_id;sensor_type;location;lat;lon;timestamp;pressure;altitude;pressure_sealevel;temperature;humidity
78144;BME280;67394;52.522;13.622;2023-10-19T00:00:53;99997.69;;;5.86;98.40
78144;BME280;67394;52.522;13.622;2023-10-19T00:03:19;99998.50;;;5.85;98.54
78144;BME280;67394;52.522;13.622;2023-10-19T00:05:46;99981.56;;;5.81;98.76
78144;BME280;67394;52.522;13.622;2023-10-19T00:08:13;99979.00;;;5.84;98.32
78144;BME280;67394;52.522;13.622;2023-10-19T00:10:42;99971.41;;;5.87;98.25
78144;BME280;67394;52.522;13.622;2023-10-19T00:13:11;99968.84;;;5.84;98.79
78144;BME280;67394;52.522;13.622;2023-10-19T00:15:38;99964.59;;;5.85;98.62
78144;BME280;67394;52.522;13.622;2023-10-19T00:18:06;99961.25;;;5.87;97.69
78144;BME280;67394;52.522;13.622;2023-10-19T00:20:33;99969.69;;;5.83;98.61
78144;BME280;67394;52.522;13.622;2023-10-19T00:22:59;99966.28;;;5.84;98.31
78144;BME280;67394;52.522;13.622;2023-10-19T00:25:26;99978.16;;;5.82;98.50
78144;BME280;67394;52.522;13.622;2023-10-19T00:27:52;99970.50;;;5.78;99.03
78144;BME280;67394;52.522;13.622;2023-10-19T00:30:19;99973.09;;;5.85;98.54
78144;BME280;67394;52.522;13.622;2023-10-19T00:32:45;99967.16;;;5.85;98.43
78144;BME280;67394;52.522;13.622;2023-10-19T00:35:12;99968.81;;;5.83;98.11
78144;BME280;67394;52.522;13.622;2023-10-19T00:37:39;99951.88;;;5.83;98.05
78144;BME280;67394;52.522;13.622;2023-10-19T00:40:06;99943.38;;;5.78;98.47
78144;BME280;67394;52.522;13.622;2023-10-19T00:42:32;99929.78;;;5.76;98.82
78144;BME280;67394;52.522;13.622;2023-10-19T00:44:59;99929.84;;;5.85;97.79
78144;BME280;67394;52.522;13.622;2023-10-19T00:47:25;99919.66;;;5.84;98.15
78144;BME280;67394;52.522;13.622;2023-10-19T00:49:52;99915.41;;;5.78;98.85
78144;BME280;67394;52.522;13.622;2023-10-19T00:52:19;99922.19;;;5.78;98.88
78144;BME280;67394;52.522;13.622;2023-10-19T00:54:46;99912.00;;;5.78;99.03
78144;BME280;67394;52.522;13.622;2023-10-19T00:57:15;99902.72;;;5.83;98.48
78144;BME280;67394;52.522;13.622;2023-10-19T00:59:42;99901.81;;;5.76;99.29
78144;BME280;67394;52.522;13.622;2023-10-19T01:02:09;99884.91;;;5.78;99.16
78144;BME280;67394;52.522;13.622;2023-10-19T01:04:36;99878.06;;;5.73;99.44
78144;BME280;67394;52.522;13.622;2023-10-19T01:07:02;99874.69;;;5.75;99.21
78144;BME280;67394;52.522;13.622;2023-10-19T01:09:29;99874.72;;;5.78;98.78
78144;BME280;67394;52.522;13.622;2023-10-19T01:11:55;99883.22;;;5.80;98.82
78144;BME280;67394;52.522;13.622;2023-10-19T01:14:22;99880.66;;;5.77;99.11
78144;BME280;67394;52.522;13.622;2023-10-19T01:16:49;99872.16;;;5.74;99.23
78144;BME280;67394;52.522;13.622;2023-10-19T01:19:16;99863.69;;;5.72;99.05
78144;BME280;67394;52.522;13.622;2023-10-19T01:21:42;99868.75;;;5.69;99.88
78144;BME280;67394;52.522;13.622;2023-10-19T01:24:09;99866.19;;;5.73;99.80
78144;BME280;67394;52.522;13.622;2023-10-19T01:26:35;99861.13;;;5.73;99.54
78144;BME280;67394;52.522;13.622;2023-10-19T01:29:02;99858.59;;;5.72;99.30
78144;BME280;67394;52.522;13.622;2023-10-19T01:31:29;99856.94;;;5.78;99.37
78144;BME280;67394;52.522;13.622;2023-10-19T01:33:59;99850.94;;;5.73;99.33
78144;BME280;67394;52.522;13.622;2023-10-19T01:36:26;99845.84;;;5.67;99.60
78144;BME280;67394;52.522;13.622;2023-10-19T01:38:55;99846.69;;;5.68;99.81
78144;BME280;67394;52.522;13.622;2023-10-19T01:41:23;99838.19;;;5.66;99.73
78144;BME280;67394;52.522;13.622;2023-10-19T01:43:52;99835.69;;;5.67;99.46
78144;BME280;67394;52.522;13.622;2023-10-19T01:46:19;99828.06;;;5.69;99.37
78144;BME280;67394;52.522;13.622;2023-10-19T01:48:48;99822.13;;;5.68;99.35
78144;BME280;67394;52.522;13.622;2023-10-19T01:51:14;99824.69;;;5.71;99.34
78144;BME280;67394;52.522;13.622;2023-10-19T01:53:41;99814.47;;;5.65;100.00
78144;BME280;67394;52.522;13.622;2023-10-19T01:56:08;99811.09;;;5.68;99.38
78144;BME280;67394;52.522;13.622;2023-10-19T01:58:36;99803.44;;;5.60;99.65
78144;BME280;67394;52.522;13.622;2023-10-19T02:01:04;99800.94;;;5.68;99.72
78144;BME280;67394;52.522;13.622;2023-10-19T02:03:31;99796.69;;;5.65;100.00
78144;BME280;67394;52.522;13.622;2023-10-19T02:05:58;99788.22;;;5.66;99.96
78144;BME280;67394;52.522;13.622;2023-10-19T02:08:28;99791.56;;;5.62;100.00
78144;BME280;67394;52.522;13.622;2023-10-19T02:10:55;99781.44;;;5.65;100.00
78144;BME280;67394;52.522;13.622;2023-10-19T02:13:21;99767.88;;;5.66;99.70
78144;BME280;67394;52.522;13.622;2023-10-19T02:15:48;99761.97;;;5.67;99.60
78144;BME280;67394;52.522;13.622;2023-10-19T02:18:14;99761.97;;;5.67;99.93
78144;BME280;67394;52.522;13.622;2023-10-19T02:20:41;99763.63;;;5.65;99.90
78144;BME280;67394;52.522;13.622;2023-10-19T02:23:07;99767.00;;;5.64;99.72
78144;BME280;67394;52.522;13.622;2023-10-19T02:25:34;99771.25;;;5.65;99.88
78144;BME280;67394;52.522;13.622;2023-10-19T02:28:00;99765.38;;;5.71;98.95
78144;BME280;67394;52.522;13.622;2023-10-19T02:30:27;99764.50;;;5.73;99.47
78144;BME280;67394;52.522;13.622;2023-10-19T02:32:53;99765.34;;;5.72;99.16
78144;BME280;67394;52.522;13.622;2023-10-19T02:35:20;99757.72;;;5.69;100.00
78144;BME280;67394;52.522;13.622;2023-10-19T02:37:46;99756.91;;;5.72;99.13
78144;BME280;67394;52.522;13.622;2023-10-19T02:40:13;99741.63;;;5.70;99.29
78144;BME280;67394;52.522;13.622;2023-10-19T02:42:39;99739.94;;;5.69;99.84
78144;BME280;67394;52.522;13.622;2023-10-19T02:45:07;99734.84;;;5.72;99.69
78144;BME280;67394;52.522;13.622;2023-10-19T02:47:34;99736.56;;;5.75;99.71
78144;BME280;67394;52.522;13.622;2023-10-19T02:50:00;99739.09;;;5.76;99.39
78144;BME280;67394;52.522;13.622;2023-10-19T02:52:27;99735.72;;;5.74;99.67
78144;BME280;67394;52.522;13.622;2023-10-19T02:54:54;99725.56;;;5.77;98.66
78144;BME280;67394;52.522;13.622;2023-10-19T02:57:21;99727.25;;;5.75;99.48
78144;BME280;67394;52.522;13.622;2023-10-19T02:59:47;99729.78;;;5.77;100.00
78144;BME280;67394;52.522;13.622;2023-10-19T03:02:14;99725.56;;;5.77;99.33
78144;BME280;67394;52.522;13.622;2023-10-19T03:04:40;99708.63;;;5.85;98.62
78144;BME280;67394;52.522;13.622;2023-10-19T03:07:08;99712.00;;;5.84;99.35
78144;BME280;67394;52.522;13.622;2023-10-19T03:09:34;99704.38;;;5.86;98.49
78144;BME280;67394;52.522;13.622;2023-10-19T03:12:01;99702.69;;;5.86;99.03
78144;BME280;67394;52.522;13.622;2023-10-19T03:14:27;99698.50;;;5.88;97.67
78144;BME280;67394;52.522;13.622;2023-10-19T03:16:55;99686.56;;;5.83;98.97
78144;BME280;67394;52.522;13.622;2023-10-19T03:19:21;99690.84;;;5.81;99.60
78144;BME280;67394;52.522;13.622;2023-10-19T03:21:48;99693.38;;;5.82;98.73
78144;BME280;67394;52.522;13.622;2023-10-19T03:24:16;99692.53;;;5.80;99.49
78144;BME280;67394;52.522;13.622;2023-10-19T03:26:43;99690.81;;;5.85;99.50
78144;BME280;67394;52.522;13.622;2023-10-19T03:29:09;99678.94;;;5.83;99.09
78144;BME280;67394;52.522;13.622;2023-10-19T03:31:37;99678.13;;;5.82;99.16
78144;BME280;67394;52.522;13.622;2023-10-19T03:34:03;99674.72;;;5.80;98.61
78144;BME280;67394;52.522;13.622;2023-10-19T03:36:30;99671.31;;;5.78;98.72
78144;BME280;67394;52.522;13.622;2023-10-19T03:38:56;99667.94;;;5.85;98.89
78144;BME280;67394;52.522;13.622;2023-10-19T03:41:23;99665.38;;;5.78;98.95
78144;BME280;67394;52.522;13.622;2023-10-19T03:43:51;99666.25;;;5.81;99.09
78144;BME280;67394;52.522;13.622;2023-10-19T03:46:18;99666.25;;;5.81;98.88
78144;BME280;67394;52.522;13.622;2023-10-19T03:48:45;99674.72;;;5.79;99.54
78144;BME280;67394;52.522;13.622;2023-10-19T03:51:12;99667.94;;;5.78;99.03
78144;BME280;67394;52.522;13.622;2023-10-19T03:53:39;99654.34;;;5.76;98.83
78144;BME280;67394;52.522;13.622;2023-10-19T03:56:05;99653.50;;;5.74;98.79
78144;BME280;67394;52.522;13.622;2023-10-19T03:58:32;99646.75;;;5.77;98.65
78144;BME280;67394;52.522;13.622;2023-10-19T04:00:58;99642.50;;;5.70;99.12
78144;BME280;67394;52.522;13.622;2023-10-19T04:03:25;99636.56;;;5.70;99.29
78144;BME280;67394;52.522;13.622;2023-10-19T04:05:51;99637.38;;;5.64;99.51
78144;BME280;67394;52.522;13.622;2023-10-19T04:08:18;99632.28;;;5.63;100.00
78144;BME280;67394;52.522;13.622;2023-10-19T04:10:47;99644.13;;;5.62;99.46
78144;BME280;67394;52.522;13.622;2023-10-19T04:13:16;99634.00;;;5.61;99.64
78144;BME280;67394;52.522;13.622;2023-10-19T04:15:43;99624.66;;;5.60;99.92
78144;BME280;67394;52.522;13.622;2023-10-19T04:18:09;99629.75;;;5.63;100.00
78144;BME280;67394;52.522;13.622;2023-10-19T04:20:40;99625.50;;;5.63;99.55
78144;BME280;67394;52.522;13.622;2023-10-19T04:23:06;99622.13;;;5.61;99.93
78144;BME280;67394;52.522;13.622;2023-10-19T04:25:33;99617.88;;;5.62;100.00
78144;BME280;67394;52.522;13.622;2023-10-19T04:27:59;99619.59;;;5.58;99.57
78144;BME280;67394;52.522;13.622;2023-10-19T04:30:26;99621.28;;;5.58;100.00
78144;BME280;67394;52.522;13.622;2023-10-19T04:32:53;99618.72;;;5.62;100.00
78144;BME280;67394;52.522;13.622;2023-10-19T04:35:20;99618.75;;;5.59;100.00
78144;BME280;67394;52.522;13.622;2023-10-19T04:37:50;99610.25;;;5.59;100.00
78144;BME280;67394;52.522;13.622;2023-10-19T04:40:18;99602.63;;;5.59;100.00
78144;BME280;67394;52.522;13.622;2023-10-19T04:42:45;99593.31;;;5.56;100.00
78144;BME280;67394;52.522;13.622;2023-10-19T04:45:12;99600.06;;;5.54;100.00
78144;BME280;67394;52.522;13.622;2023-10-19T04:47:39;99594.16;;;5.55;100.00
78144;BME280;67394;52.522;13.622;2023-10-19T04:50:08;99589.94;;;5.59;100.00
78144;BME280;67394;52.522;13.622;2023-10-19T04:52:36;99586.53;;;5.58;100.00
78144;BME280;67394;52.522;13.622;2023-10-19T04:55:03;99590.78;;;5.58;100.00
78144;BME280;67394;52.522;13.622;2023-10-19T04:57:30;99587.38;;;5.54;100.00
78144;BME280;67394;52.522;13.622;2023-10-19T04:59:57;99586.50;;;5.53;100.00
78144;BME280;67394;52.522;13.622;2023-10-19T05:02:23;99586.50;;;5.52;100.00
78144;BME280;67394;52.522;13.622;2023-10-19T05:04:50;99584.81;;;5.54;100.00
78144;BME280;67394;52.522;13.622;2023-10-19T05:07:17;99575.50;;;5.51;100.00
78144;BME280;67394;52.522;13.622;2023-10-19T05:09:44;99573.81;;;5.52;100.00
78144;BME280;67394;52.522;13.622;2023-10-19T05:12:13;99583.13;;;5.55;100.00
78144;BME280;67394;52.522;13.622;2023-10-19T05:14:40;99581.44;;;5.52;100.00
78144;BME280;67394;52.522;13.622;2023-10-19T05:17:08;99576.38;;;5.50;100.00
78144;BME280;67394;52.522;13.622;2023-10-19T05:19:36;99572.94;;;5.51;100.00
78144;BME280;67394;52.522;13.622;2023-10-19T05:22:06;99567.03;;;5.52;100.00
78144;BME280;67394;52.522;13.622;2023-10-19T05:24:33;99561.13;;;5.50;100.00
78144;BME280;67394;52.522;13.622;2023-10-19T05:26:59;99567.03;;;5.54;100.00
78144;BME280;67394;52.522;13.622;2023-10-19T05:29:26;99554.31;;;5.54;100.00
78144;BME280;67394;52.522;13.622;2023-10-19T05:31:53;99556.00;;;5.46;100.00
78144;BME280;67394;52.522;13.622;2023-10-19T05:34:21;99564.47;;;5.46;100.00
78144;BME280;67394;52.522;13.622;2023-10-19T05:36:48;99556.00;;;5.46;100.00
78144;BME280;67394;52.522;13.622;2023-10-19T05:39:15;99554.34;;;5.48;100.00
78144;BME280;67394;52.522;13.622;2023-10-19T05:41:42;99552.63;;;5.47;100.00
78144;BME280;67394;52.522;13.622;2023-10-19T05:44:08;99557.72;;;5.45;100.00
78144;BME280;67394;52.522;13.622;2023-10-19T05:46:35;99561.94;;;5.46;100.00
78144;BME280;67394;52.522;13.622;2023-10-19T05:49:02;99558.56;;;5.52;100.00
78144;BME280;67394;52.522;13.622;2023-10-19T05:51:33;99561.09;;;5.46;100.00
78144;BME280;67394;52.522;13.622;2023-10-19T05:54:00;99567.03;;;5.49;100.00
78144;BME280;67394;52.522;13.622;2023-10-19T05:56:29;99567.88;;;5.45;100.00
78144;BME280;67394;52.522;13.622;2023-10-19T05:58:55;99569.56;;;5.45;100.00
78144;BME280;67394;52.522;13.622;2023-10-19T06:01:23;99573.78;;;5.44;100.00
78144;BME280;67394;52.522;13.622;2023-10-19T06:03:50;99578.03;;;5.44;100.00
78144;BME280;67394;52.522;13.622;2023-10-19T06:06:16;99574.63;;;5.45;100.00
78144;BME280;67394;52.522;13.622;2023-10-19T06:08:43;99577.19;;;5.45;100.00
78144;BME280;67394;52.522;13.622;2023-10-19T06:11:09;99570.41;;;5.51;100.00
78144;BME280;67394;52.522;13.622;2023-10-19T06:13:36;99573.81;;;5.49;100.00
78144;BME280;67394;52.522;13.622;2023-10-19T06:16:02;99565.31;;;5.51;100.00
78144;BME280;67394;52.522;13.622;2023-10-19T06:18:29;99561.94;;;5.45;100.00
78144;BME280;67394;52.522;13.622;2023-10-19T06:20:56;99564.47;;;5.46;100.00
78144;BME280;67394;52.522;13.622;2023-10-19T06:23:22;99545.84;;;5.46;100.00
78144;BME280;67394;52.522;13.622;2023-10-19T06:25:49;99540.78;;;5.46;100.00
78144;BME280;67394;52.522;13.622;2023-10-19T06:28:15;99534.81;;;5.42;100.00
78144;BME280;67394;52.522;13.622;2023-10-19T06:30:42;99532.28;;;5.44;100.00
78144;BME280;67394;52.522;13.622;2023-10-19T06:33:08;99529.72;;;5.35;100.00
78144;BME280;67394;52.522;13.622;2023-10-19T06:35:35;99524.69;;;5.39;100.00
78144;BME280;67394;52.522;13.622;2023-10-19T06:38:02;99523.81;;;5.42;100.00
78144;BME280;67394;52.522;13.622;2023-10-19T06:40:28;99528.06;;;5.40;100.00
78144;BME280;67394;52.522;13.622;2023-10-19T06:42:55;99519.56;;;5.41;100.00
78144;BME280;67394;52.522;13.622;2023-10-19T06:45:24;99518.72;;;5.42;100.00
78144;BME280;67394;52.522;13.622;2023-10-19T06:47:51;99516.19;;;5.45;100.00
78144;BME280;67394;52.522;13.622;2023-10-19T06:50:23;99506.88;;;5.41;100.00
78144;BME280;67394;52.522;13.622;2023-10-19T06:52:49;99509.41;;;5.42;100.00
78144;BME280;67394;52.522;13.622;2023-10-19T06:55:17;99511.13;;;5.49;100.00
78144;BME280;67394;52.522;13.622;2023-10-19T06:57:44;99520.44;;;5.46;100.00
78144;BME280;67394;52.522;13.622;2023-10-19T07:00:12;99515.34;;;5.46;100.00
78144;BME280;67394;52.522;13.622;2023-10-19T07:02:39;99495.88;;;5.51;100.00
78144;BME280;67394;52.522;13.622;2023-10-19T07:05:06;99488.25;;;5.51;100.00
78144;BME280;67394;52.522;13.622;2023-10-19T07:07:32;99489.94;;;5.52;100.00
78144;BME280;67394;52.522;13.622;2023-10-19T07:09:59;99487.41;;;5.55;100.00
78144;BME280;67394;52.522;13.622;2023-10-19T07:12:26;99483.19;;;5.60;100.00
78144;BME280;67394;52.522;13.622;2023-10-19T07:14:52;99478.09;;;5.63;100.00
78144;BME280;67394;52.522;13.622;2023-10-19T07:17:19;99478.09;;;5.66;100.00
78144;BME280;67394;52.522;13.622;2023-10-19T07:19:45;99486.59;;;5.70;100.00
78144;BME280;67394;52.522;13.622;2023-10-19T07:22:12;99479.81;;;5.70;100.00
78144;BME280;67394;52.522;13.622;2023-10-19T07:24:38;99479.81;;;5.72;100.00
78144;BME280;67394;52.522;13.622;2023-10-19T07:27:05;99473.00;;;5.75;100.00
78144;BME280;67394;52.522;13.622;2023-10-19T07:29:32;99462.84;;;5.86;100.00
78144;BME280;67394;52.522;13.622;2023-10-19T07:31:58;99461.13;;;5.86;100.00
78144;BME280;67394;52.522;13.622;2023-10-19T07:34:25;99461.13;;;5.86;100.00
78144;BME280;67394;52.522;13.622;2023-10-19T07:36:51;99469.63;;;5.87;100.00
78144;BME280;67394;52.522;13.622;2023-10-19T07:39:18;99460.31;;;5.89;100.00
78144;BME280;67394;52.522;13.622;2023-10-19T07:41:44;99471.34;;;5.91;100.00
78144;BME280;67394;52.522;13.622;2023-10-19T07:44:11;99470.47;;;5.97;100.00
78144;BME280;67394;52.522;13.622;2023-10-19T07:46:38;99469.63;;;5.96;100.00
78144;BME280;67394;52.522;13.622;2023-10-19T07:49:04;99471.34;;;5.99;100.00
78144;BME280;67394;52.522;13.622;2023-10-19T07:51:32;99474.72;;;6.04;100.00
78144;BME280;67394;52.522;13.622;2023-10-19T07:53:58;99469.63;;;6.10;100.00
78144;BME280;67394;52.522;13.622;2023-10-19T07:56:25;99474.69;;;6.16;100.00
78144;BME280;67394;52.522;13.622;2023-10-19T07:58:52;99478.94;;;6.17;100.00
78144;BME280;67394;52.522;13.622;2023-10-19T08:01:18;99473.00;;;6.21;100.00
78144;BME280;67394;52.522;13.622;2023-10-19T08:03:45;99484.00;;;6.28;100.00
78144;BME280;67394;52.522;13.622;2023-10-19T08:06:12;99475.50;;;6.30;100.00
78144;BME280;67394;52.522;13.622;2023-10-19T08:08:38;99478.06;;;6.33;100.00
78144;BME280;67394;52.522;13.622;2023-10-19T08:11:05;99478.06;;;6.35;100.00
78144;BME280;67394;52.522;13.622;2023-10-19T08:13:31;99478.03;;;6.38;100.00
78144;BME280;67394;52.522;13.622;2023-10-19T08:15:58;99474.63;;;6.39;100.00
78144;BME280;67394;52.522;13.622;2023-10-19T08:18:25;99476.34;;;6.41;100.00
78144;BME280;67394;52.522;13.622;2023-10-19T08:20:53;99476.34;;;6.44;100.00
78144;BME280;67394;52.522;13.622;2023-10-19T08:23:19;99469.50;;;6.49;100.00
78144;BME280;67394;52.522;13.622;2023-10-19T08:25:45;99466.13;;;6.50;100.00
78144;BME280;67394;52.522;13.622;2023-10-19T08:28:22;99470.34;;;6.51;100.00
78144;BME280;67394;52.522;13.622;2023-10-19T08:30:49;99469.47;;;6.58;100.00
78144;BME280;67394;52.522;13.622;2023-10-19T08:33:16;99461.84;;;6.60;100.00
78144;BME280;67394;52.522;13.622;2023-10-19T08:35:43;99459.28;;;6.57;100.00
78144;BME280;67394;52.522;13.622;2023-10-19T08:38:09;99458.47;;;6.55;100.00
78144;BME280;67394;52.522;13.622;2023-10-19T08:40:36;99454.22;;;6.57;100.00
78144;BME280;67394;52.522;13.622;2023-10-19T08:43:03;99453.38;;;6.56;100.00
78144;BME280;67394;52.522;13.622;2023-10-19T08:45:32;99452.53;;;6.54;100.00
78144;BME280;67394;52.522;13.622;2023-10-19T08:48:01;99439.81;;;6.56;100.00
78144;BME280;67394;52.522;13.622;2023-10-19T08:50:32;99429.59;;;6.62;100.00
78144;BME280;67394;52.522;13.622;2023-10-19T08:53:00;99425.31;;;6.70;100.00
78144;BME280;67394;52.522;13.622;2023-10-19T08:55:26;99415.13;;;6.73;100.00
78144;BME280;67394;52.522;13.622;2023-10-19T08:58:14;99409.19;;;6.71;100.00
78144;BME280;67394;52.522;13.622;2023-10-19T09:00:49;99417.66;;;6.76;100.00
78144;BME280;67394;52.522;13.622;2023-10-19T09:03:16;99415.97;;;6.75;100.00
78144;BME280;67394;52.522;13.622;2023-10-19T09:05:44;99411.66;;;6.79;100.00
78144;BME280;67394;52.522;13.622;2023-10-19T09:08:16;99409.09;;;6.85;100.00
78144;BME280;67394;52.522;13.622;2023-10-19T09:10:43;99407.41;;;6.84;100.00
78144;BME280;67394;52.522;13.622;2023-10-19T09:13:10;99422.69;;;6.87;100.00
78144;BME280;67394;52.522;13.622;2023-10-19T09:15:37;99411.66;;;6.85;100.00
78144;BME280;67394;52.522;13.622;2023-10-19T09:18:16;99409.94;;;6.88;100.00
78144;BME280;67394;52.522;13.622;2023-10-19T09:20:45;99407.34;;;6.91;100.00
78144;BME280;67394;52.522;13.622;2023-10-19T09:23:12;99413.25;;;7.03;100.00
78144;BME280;67394;52.522;13.622;2023-10-19T09:25:39;99412.38;;;7.05;100.00
78144;BME280;67394;52.522;13.622;2023-10-19T09:28:06;99409.81;;;7.08;100.00
78144;BME280;67394;52.522;13.622;2023-10-19T09:34:01;99391.91;;;7.20;100.00
78144;BME280;67394;52.522;13.622;2023-10-19T09:36:28;99393.56;;;7.21;100.00
78144;BME280;67394;52.522;13.622;2023-10-19T09:38:55;99392.72;;;7.22;100.00
78144;BME280;67394;52.522;13.622;2023-10-19T09:41:23;99383.28;;;7.32;100.00
78144;BME280;67394;52.522;13.622;2023-10-19T09:43:50;99389.22;;;7.35;100.00
78144;BME280;67394;52.522;13.622;2023-10-19T09:46:22;99395.13;;;7.41;100.00
78144;BME280;67394;52.522;13.622;2023-10-19T09:48:49;99396.84;;;7.39;100.00
78144;BME280;67394;52.522;13.622;2023-10-19T09:51:17;99390.06;;;7.38;100.00
78144;BME280;67394;52.522;13.622;2023-10-19T09:53:49;99391.69;;;7.45;100.00
78144;BME280;67394;52.522;13.622;2023-10-19T09:56:21;99395.16;;;7.38;100.00
78144;BME280;67394;52.522;13.622;2023-10-19T09:58:51;99392.59;;;7.41;100.00
78144;BME280;67394;52.522;13.622;2023-10-19T10:01:19;99390.03;;;7.41;100.00
78144;BME280;67394;52.522;13.622;2023-10-19T10:03:49;99396.00;;;7.40;100.00
78144;BME280;67394;52.522;13.622;2023-10-19T10:07:04;99401.97;;;7.34;100.00
78144;BME280;67394;52.522;13.622;2023-10-19T10:09:03;99386.69;;;7.31;100.00
78144;BME280;67394;52.522;13.622;2023-10-19T10:11:30;99379.03;;;7.34;100.00
78144;BME280;67394;52.522;13.622;2023-10-19T10:13:57;99384.13;;;7.32;100.00
78144;BME280;67394;52.522;13.622;2023-10-19T10:16:26;99378.16;;;7.40;100.00
78144;BME280;67394;52.522;13.622;2023-10-19T10:18:55;99376.53;;;7.29;100.00
78144;BME280;67394;52.522;13.622;2023-10-19T10:21:23;99368.06;;;7.27;100.00
78144;BME280;67394;52.522;13.622;2023-10-19T10:26:22;99374.78;;;7.34;100.00
78144;BME280;67394;52.522;13.622;2023-10-19T10:31:42;99372.28;;;7.28;100.00
78144;BME280;67394;52.522;13.622;2023-10-19T10:34:09;99375.63;;;7.37;100.00
78144;BME280;67394;52.522;13.622;2023-10-19T10:36:58;99369.66;;;7.38;100.00
78144;BME280;67394;52.522;13.622;2023-10-19T10:39:26;99367.97;;;7.35;100.00
78144;BME280;67394;52.522;13.622;2023-10-19T10:42:02;99358.63;;;7.37;100.00
78144;BME280;67394;52.522;13.622;2023-10-19T10:47:06;99356.09;;;7.35;100.00
78144;BME280;67394;52.522;13.622;2023-10-19T10:49:33;99355.19;;;7.41;100.00
78144;BME280;67394;52.522;13.622;2023-10-19T10:52:00;99346.72;;;7.41;100.00
78144;BME280;67394;52.522;13.622;2023-10-19T10:54:26;99339.91;;;7.41;100.00
78144;BME280;67394;52.522;13.622;2023-10-19T10:56:53;99333.13;;;7.39;100.00
78144;BME280;67394;52.522;13.622;2023-10-19T10:59:19;99328.03;;;7.40;100.00
78144;BME280;67394;52.522;13.622;2023-10-19T11:01:46;99330.56;;;7.40;100.00
78144;BME280;67394;52.522;13.622;2023-10-19T11:04:16;99331.38;;;7.44;100.00
78144;BME280;67394;52.522;13.622;2023-10-19T11:06:50;99339.03;;;7.42;100.00
78144;BME280;67394;52.522;13.622;2023-10-19T11:09:17;99338.22;;;7.39;100.00
78144;BME280;67394;52.522;13.622;2023-10-19T11:11:45;99333.16;;;7.35;100.00
78144;BME280;67394;52.522;13.622;2023-10-19T11:14:12;99329.75;;;7.33;100.00
78144;BME280;67394;52.522;13.622;2023-10-19T11:16:38;99331.44;;;7.34;100.00
78144;BME280;67394;52.522;13.622;2023-10-19T11:19:05;99337.47;;;7.26;100.00
78144;BME280;67394;52.522;13.622;2023-10-19T11:21:32;99333.25;;;7.23;100.00
78144;BME280;67394;52.522;13.622;2023-10-19T11:23:58;99336.69;;;7.19;100.00
78144;BME280;67394;52.522;13.622;2023-10-19T11:26:25;99337.47;;;7.27;100.00
78144;BME280;67394;52.522;13.622;2023-10-19T11:31:25;99321.31;;;7.30;100.00
78144;BME280;67394;52.522;13.622;2023-10-19T11:33:52;99319.66;;;7.24;100.00
78144;BME280;67394;52.522;13.622;2023-10-19T11:36:21;99314.47;;;7.33;100.00
78144;BME280;67394;52.522;13.622;2023-10-19T11:38:49;99317.00;;;7.37;100.00
78144;BME280;67394;52.522;13.622;2023-10-19T11:41:16;99312.75;;;7.37;100.00
78144;BME280;67394;52.522;13.622;2023-10-19T11:43:45;99310.97;;;7.42;100.00
78144;BME280;67394;52.522;13.622;2023-10-19T11:46:13;99298.22;;;7.44;100.00
78144;BME280;67394;52.522;13.622;2023-10-19T11:48:39;99295.66;;;7.45;100.00
78144;BME280;67394;52.522;13.622;2023-10-19T11:51:06;99287.97;;;7.51;100.00
78144;BME280;67394;52.522;13.622;2023-10-19T11:53:34;99292.16;;;7.54;100.00
78144;BME280;67394;52.522;13.622;2023-10-19T11:56:06;99292.16;;;7.57;100.00
78144;BME280;67394;52.522;13.622;2023-10-19T11:58:33;99298.09;;;7.59;100.00
78144;BME280;67394;52.522;13.622;2023-10-19T12:01:03;99286.19;;;7.58;100.00
78144;BME280;67394;52.522;13.622;2023-10-19T12:03:31;99287.13;;;7.51;100.00
78144;BME280;67394;52.522;13.622;2023-10-19T12:05:57;99274.34;;;7.52;100.00
78144;BME280;67394;52.522;13.622;2023-10-19T12:08:25;99290.44;;;7.57;100.00
78144;BME280;67394;52.522;13.622;2023-10-19T12:10:51;99283.63;;;7.61;100.00
78144;BME280;67394;52.522;13.622;2023-10-19T12:13:17;99276.00;;;7.58;100.00
78144;BME280;67394;52.522;13.622;2023-10-19T12:15:44;99271.72;;;7.60;100.00
78144;BME280;67394;52.522;13.622;2023-10-19T12:18:11;99279.38;;;7.60;100.00
78144;BME280;67394;52.522;13.622;2023-10-19T12:20:37;99289.59;;;7.58;100.00
78144;BME280;67394;52.522;13.622;2023-10-19T12:23:04;99295.53;;;7.60;100.00
78144;BME280;67394;52.522;13.622;2023-10-19T12:25:30;99287.81;;;7.63;100.00
78144;BME280;67394;52.522;13.622;2023-10-19T12:28:18;99274.31;;;7.55;100.00
78144;BME280;67394;52.522;13.622;2023-10-19T12:30:45;99280.28;;;7.53;100.00
78144;BME280;67394;52.522;13.622;2023-10-19T12:33:11;99277.72;;;7.53;100.00
78144;BME280;67394;52.522;13.622;2023-10-19T12:35:40;99271.00;;;7.49;100.00
78144;BME280;67394;52.522;13.622;2023-10-19T12:38:07;99269.28;;;7.51;100.00
78144;BME280;67394;52.522;13.622;2023-10-19T12:40:34;99262.53;;;7.45;100.00
78144;BME280;67394;52.522;13.622;2023-10-19T12:43:00;99264.19;;;7.51;100.00
78144;BME280;67394;52.522;13.622;2023-10-19T12:45:27;99271.03;;;7.44;100.00
78144;BME280;67394;52.522;13.622;2023-10-19T12:47:53;99264.28;;;7.40;100.00
78144;BME280;67394;52.522;13.622;2023-10-19T12:50:21;99269.44;;;7.34;100.00
78144;BME280;67394;52.522;13.622;2023-10-19T12:52:50;99271.19;;;7.29;100.00
78144;BME280;67394;52.522;13.622;2023-10-19T12:55:18;99274.63;;;7.26;100.00
78144;BME280;67394;52.522;13.622;2023-10-19T12:57:44;99270.34;;;7.28;100.00
78144;BME280;67394;52.522;13.622;2023-10-19T13:00:11;99268.69;;;7.24;100.00
78144;BME280;67394;52.522;13.622;2023-10-19T13:02:38;99272.97;;;7.21;100.00
78144;BME280;67394;52.522;13.622;2023-10-19T13:05:05;99267.09;;;7.11;100.00
78144;BME280;67394;52.522;13.622;2023-10-19T13:07:31;99265.44;;;7.09;100.00